Accueil
METAR-TAF:

METAR-TAF

Aéroports :

Fritzlar, Allemagne

latitude: 51-07N, longitude: 009-17E, altitude: 172 m

Observation

Le bulletin a été fait il y a 1 heure et 5 minutes, à 21:20 UTC
Vent 6 kt de ouest/nord-ouest
Température 3°C
Humidité 70%
Pression 1015 hPa
Visibilité 10 km ou plus
Quelques nuages à une hauteur de 5000 ft
Nuages épars à une hauteur de 7000 ft

METAR: ETHF 272120Z 30006KT 9999 FEW050 SCT070 03/M02 Q1015 BLU+BLU+ TEMPO BLU

Heure: 00:25 (22:25 UTC)

Prévision

Le bulletin a été fait il y a 1 heure et 24 minutes, à 21:01 UTC
Prévision valable du 27 à 17 UTC au 28 à 02 UTC
Vent 6 kt de nord/nord-est
Visibilité 10 km ou plus
Nuages épars à une hauteur de 5000 ft
Evoluant progressivement
du 27 à 17 UTC au 27 à 18 UTC
Vent 3 kt de direction variable
Visibilité: 2220 m
Nuages épars à une hauteur de 7000 ft

TAF: ETHF 272101Z 2717/2802 02006KT 9999 NSW SCT050 BECMG 2717/2718 VRB03KT 9999 NSW SCT070 CANCEL 2220

Observations et prévisions météorologiques de plus de 4000 aéroports (messages METAR et TAF).

Les stations disponibles sont représentées par des disques jaunes et rouges sur la carte.

Passer la souris dessus pour voir le nom de la station.

Cliquer dessus pour voir les observations et prévisions météorologiques.

Pour changer de carte: cliquez sur les boutons verts avec une croix noire pour zoomer, sur le bouton vert avec un tiret pour effectuer un zoom arrière, ou sur les flèches vertes pour les cartes adjacentes.


METAR-TAF: